Airfield :
LOGIN :

Register | Disclaimer

   EN    FR    IT 

 










Legend :    VFR   Marginal VFR   IFR   Intensive IFR   Very Intensive IFR
Visi :
Ceiling :
>= 8 km
>= 3000ft
5 to 8 km
1000 to 3000 ft
1500m to 5 km
500 to 1000 ft
800 to 1500m
200 to 500 ft
< 800m
< 200 ft
Symbols :   Thunderstorms  Fog  Heavy snow  Heavy precipitations  Wind > 20 kt
SIGMETs :     Misc.  Thunderstorms  Icing  Turbulence  Mountain Waves  Volcanic Ashes






- Airport Elevation : 645 ft
- IATA code : DLE


LFGJ - Dole Tavaux

CURRENT METAR :
  • 052030Z AUTO 01012KT 9999 BKN026 OVC032 06/03 Q1035

EXPIRED METARs :
  • 052000Z AUTO 36008KT 9999 FEW027 BKN034 OVC040 05/02 Q1036
  • 051930Z AUTO 35010KT 9999 BKN041 BKN048 BKN060 05/02 Q1036
  • 051900Z AUTO 36011KT 9999 -RA OVC033 06/02 Q1036
  • 051830Z AUTO 35012KT 9999 BKN034 BKN040 BKN054 06/02 Q1035
  • 051800Z AUTO 35013KT 9999 BKN036 BKN042 OVC049 07/02 Q1035 TEMPO 02015G25KT

TAF TAF LFGJ
Valid from the 05 at 15:00 until the 06 at 00:00 UTC


051400Z 0515/0524 35008KT 9999 SCT020 BKN050
TEMPO 0515/0518 4000 -RA BR BKN007
TEMPO 0518/0524 02015G25KT



MET'MAP, your aeronautical weather chart ! - Copyright ORBIFLY December 2007 - Disclaimer

ORBIFLY MET'MAP TEAM :

Programming & Development : Alexandra Zaïnal
Original concept : Baudouin d'Aumeries
Technical & hardware support : Manuel Goepfert
Assistance : Marc-Olivier Méhu




SOURCES & CREDITS :

   NOAA